createdAt,value
2019-05-21T00:01:31.298Z,5.90
2019-05-21T00:04:02.632Z,5.53
2019-05-21T00:06:32.900Z,6.60
2019-05-21T00:09:04.433Z,5.80
2019-05-21T00:11:34.748Z,7.78
2019-05-21T00:14:05.074Z,9.10
2019-05-21T00:16:35.431Z,8.88
2019-05-21T00:19:05.711Z,6.47
2019-05-21T00:21:37.044Z,6.72
2019-05-21T00:24:07.381Z,5.67
2019-05-21T00:26:38.678Z,5.17
2019-05-21T00:29:45.386Z,4.95
2019-05-21T00:32:52.964Z,4.80
2019-05-21T00:35:59.690Z,4.70
2019-05-21T00:39:06.365Z,4.87
2019-05-21T00:42:08.818Z,5.22
2019-05-21T00:44:42.046Z,5.15
2019-05-21T00:47:13.313Z,5.30
2019-05-21T00:49:43.586Z,4.53
2019-05-21T00:52:13.816Z,4.72
2019-05-21T00:54:45.058Z,5.12
2019-05-21T00:57:15.278Z,5.15
2019-05-21T00:59:45.725Z,4.62
2019-05-21T01:02:16.055Z,5.40
2019-05-21T01:04:59.546Z,5.83
2019-05-21T01:07:19.665Z,6.25
2019-05-21T01:09:50.000Z,6.78
2019-05-21T01:12:20.333Z,7.65
2019-05-21T01:14:50.676Z,7.50
2019-05-21T01:17:20.870Z,7.12
2019-05-21T01:19:51.233Z,7.45
2019-05-21T01:22:24.556Z,6.22
2019-05-21T01:24:54.825Z,6.37
2019-05-21T01:27:25.150Z,6.20
2019-05-21T01:29:55.384Z,6.42
2019-05-21T01:32:25.709Z,6.33
2019-05-21T01:34:56.018Z,6.33
2019-05-21T01:37:26.261Z,6.78
2019-05-21T01:39:57.494Z,6.85
2019-05-21T01:42:27.725Z,6.87
2019-05-21T01:44:57.974Z,6.95
2019-05-21T01:47:28.317Z,6.67
2019-05-21T01:50:06.707Z,7.87
2019-05-21T01:52:36.994Z,6.97
2019-05-21T01:55:07.306Z,7.37
2019-05-21T01:57:37.492Z,8.00
2019-05-21T02:00:07.737Z,7.65
2019-05-21T02:02:38.081Z,8.03
2019-05-21T02:05:08.360Z,8.20
2019-05-21T02:07:38.771Z,7.90
2019-05-21T02:10:09.511Z,8.35
2019-05-21T02:12:39.840Z,8.55
2019-05-21T02:15:10.374Z,9.00
2019-05-21T02:17:40.703Z,8.85
2019-05-21T02:20:11.116Z,8.88
2019-05-21T02:22:41.470Z,8.98
2019-05-21T02:25:12.084Z,8.35
2019-05-21T02:27:42.383Z,9.20
2019-05-21T02:30:13.042Z,9.45
2019-05-21T02:32:43.278Z,10.08
2019-05-21T02:35:13.552Z,9.40
2019-05-21T02:37:43.840Z,10.05
2019-05-21T02:40:14.568Z,10.20
2019-05-21T02:42:44.921Z,10.65
2019-05-21T02:45:16.074Z,10.15
2019-05-21T02:47:47.300Z,10.10
2019-05-21T02:50:17.644Z,10.03
2019-05-21T02:52:48.049Z,10.30
2019-05-21T02:55:20.099Z,10.95
2019-05-21T02:57:50.466Z,10.58
2019-05-21T03:00:31.540Z,10.32
2019-05-21T03:03:03.554Z,10.18
2019-05-21T03:05:33.874Z,11.03
2019-05-21T03:08:04.242Z,11.15
2019-05-21T03:10:34.543Z,10.90
2019-05-21T03:13:04.980Z,10.48
2019-05-21T03:15:35.213Z,11.38
2019-05-21T03:18:05.579Z,11.43
2019-05-21T03:20:35.970Z,11.88
2019-05-21T03:23:06.154Z,12.35
2019-05-21T03:25:36.499Z,12.00
2019-05-21T03:28:06.867Z,12.50
2019-05-21T03:30:37.137Z,12.45
2019-05-21T03:33:07.460Z,12.98
2019-05-21T03:35:37.782Z,12.70
2019-05-21T03:38:08.122Z,13.32
2019-05-21T03:40:38.416Z,12.35
2019-05-21T03:43:08.774Z,13.35
2019-05-21T03:45:39.100Z,14.05
2019-05-21T03:48:09.419Z,14.35
2019-05-21T03:50:39.712Z,14.13
2019-05-21T03:53:10.021Z,14.00
2019-05-21T03:55:40.379Z,15.38
2019-05-21T03:58:10.707Z,14.98
2019-05-21T04:00:41.032Z,13.32
2019-05-21T04:03:11.365Z,14.43
2019-05-21T04:05:41.815Z,14.15
2019-05-21T04:08:11.995Z,14.63
2019-05-21T04:10:42.250Z,14.58
2019-05-21T04:13:12.579Z,14.43
2019-05-21T04:15:44.909Z,14.98
2019-05-21T04:18:22.478Z,14.50
2019-05-21T04:20:52.833Z,14.00
2019-05-21T04:23:23.225Z,14.53
2019-05-21T04:25:53.511Z,14.20
2019-05-21T04:28:23.681Z,13.28
2019-05-21T04:30:53.877Z,14.58
2019-05-21T04:33:26.864Z,14.23
2019-05-21T04:35:57.178Z,13.98
2019-05-21T04:38:27.482Z,13.65
2019-05-21T04:40:57.820Z,13.62
2019-05-21T04:43:28.106Z,13.88
2019-05-21T04:45:58.470Z,13.68
2019-05-21T04:48:28.631Z,13.62
2019-05-21T04:50:58.912Z,13.72
2019-05-21T04:53:29.130Z,13.90
2019-05-21T04:55:59.411Z,14.23
2019-05-21T04:58:29.767Z,15.50
2019-05-21T05:01:00.093Z,15.00
2019-05-21T05:03:30.391Z,15.23
2019-05-21T05:06:00.631Z,17.25
2019-05-21T05:08:30.876Z,16.02
2019-05-21T05:11:01.190Z,16.25
2019-05-21T05:13:31.460Z,16.42
2019-05-21T05:16:04.180Z,16.57
2019-05-21T05:18:33.725Z,16.93
2019-05-21T05:21:03.988Z,14.18
2019-05-21T05:23:35.361Z,11.97
2019-05-21T05:26:05.658Z,11.05
2019-05-21T05:28:36.001Z,10.20
2019-05-21T05:31:06.215Z,11.28
2019-05-21T05:33:36.538Z,9.95
2019-05-21T05:36:06.797Z,10.95
2019-05-21T05:38:37.063Z,11.30
2019-05-21T05:41:07.307Z,10.38
2019-05-21T05:43:37.591Z,10.85
2019-05-21T05:46:07.907Z,11.00
2019-05-21T05:48:39.811Z,11.40
2019-05-21T05:51:10.245Z,11.70
2019-05-21T05:53:58.472Z,11.75
2019-05-21T05:56:29.524Z,11.45
2019-05-21T05:58:59.958Z,12.20
2019-05-21T06:01:33.035Z,11.15
2019-05-21T06:04:03.320Z,12.10
2019-05-21T06:06:33.643Z,11.53
2019-05-21T06:09:05.465Z,11.25
2019-05-21T06:11:35.729Z,11.12
2019-05-21T06:14:05.953Z,11.75
2019-05-21T06:16:36.187Z,11.22
2019-05-21T06:19:06.521Z,11.00
2019-05-21T06:21:36.707Z,10.98
2019-05-21T06:24:07.039Z,11.15
2019-05-21T06:26:37.418Z,11.50
2019-05-21T06:29:07.686Z,11.33
2019-05-21T06:31:38.017Z,11.60
2019-05-21T06:34:08.335Z,11.12
2019-05-21T06:36:38.650Z,11.68
2019-05-21T06:39:09.025Z,11.30
2019-05-21T06:41:39.313Z,11.75
2019-05-21T06:44:09.603Z,11.00
2019-05-21T06:46:39.897Z,11.33
2019-05-21T06:49:10.229Z,11.45
2019-05-21T06:51:40.554Z,11.90
2019-05-21T06:54:10.847Z,11.70
2019-05-21T06:56:41.061Z,12.03
2019-05-21T06:59:11.343Z,10.80
2019-05-21T07:01:42.551Z,11.03
2019-05-21T07:04:12.892Z,11.40
2019-05-21T07:06:44.889Z,10.75
2019-05-21T07:09:15.175Z,11.05
2019-05-21T07:11:46.503Z,10.32
2019-05-21T07:14:16.878Z,10.72
2019-05-21T07:16:47.139Z,11.20
2019-05-21T07:19:17.461Z,10.90
2019-05-21T07:21:47.898Z,11.00
2019-05-21T07:24:19.371Z,11.03
2019-05-21T07:26:51.955Z,11.08
2019-05-21T07:29:27.143Z,10.68
2019-05-21T07:32:37.455Z,11.30
2019-05-21T07:35:27.311Z,10.18
2019-05-21T07:37:54.516Z,10.82
2019-05-21T07:40:26.604Z,10.68
2019-05-21T08:01:01.794Z,9.33
2019-05-21T08:03:34.261Z,9.10
2019-05-21T08:06:04.472Z,9.65
2019-05-21T08:08:34.780Z,8.70
2019-05-21T08:11:05.105Z,15.78
2019-05-21T08:13:35.466Z,14.00
2019-05-21T08:16:05.752Z,15.35
2019-05-21T08:18:35.995Z,14.53
2019-05-21T08:21:06.846Z,13.40
2019-05-21T08:23:37.107Z,13.15
2019-05-21T08:26:07.315Z,13.75
2019-05-21T08:28:37.582Z,12.73
2019-05-21T08:31:07.912Z,12.25
2019-05-21T08:33:38.191Z,9.50
2019-05-21T08:36:08.535Z,7.28
2019-05-21T08:38:38.855Z,5.85
2019-05-21T08:41:09.133Z,5.70
2019-05-21T08:43:39.367Z,5.40
2019-05-21T08:46:09.588Z,5.22
2019-05-21T08:48:39.801Z,8.58
2019-05-21T08:51:10.057Z,5.03
2019-05-21T08:53:40.337Z,4.90
2019-05-21T08:56:11.579Z,5.42
2019-05-21T08:58:41.808Z,5.12
2019-05-21T09:01:12.111Z,5.28
2019-05-21T09:03:42.428Z,5.28
2019-05-21T09:06:12.701Z,5.78
2019-05-21T09:08:42.899Z,5.45
2019-05-21T09:11:13.176Z,6.58
2019-05-21T09:13:43.329Z,5.85
2019-05-21T09:16:13.565Z,5.83
2019-05-21T09:18:43.890Z,5.67
2019-05-21T09:21:14.038Z,5.67
2019-05-21T09:23:44.153Z,5.37
2019-05-21T09:26:14.448Z,5.95
2019-05-21T09:28:44.592Z,6.40
2019-05-21T09:31:14.922Z,6.30
2019-05-21T09:33:45.073Z,6.33
2019-05-21T09:36:15.287Z,5.95
2019-05-21T09:38:45.393Z,6.87
2019-05-21T09:41:15.613Z,6.33
2019-05-21T09:43:45.817Z,7.20
2019-05-21T09:46:16.070Z,7.28
2019-05-21T09:48:46.286Z,6.95
2019-05-21T09:51:20.273Z,7.33
2019-05-21T09:53:48.402Z,7.37
2019-05-21T09:56:34.860Z,8.40
2019-05-21T09:59:11.793Z,8.15
2019-05-21T10:01:47.624Z,9.03
2019-05-21T10:04:15.557Z,9.38
2019-05-21T10:06:45.889Z,9.63
2019-05-21T10:09:21.169Z,10.28
2019-05-21T10:11:51.256Z,9.18
2019-05-21T10:14:21.576Z,9.83
2019-05-21T10:16:51.871Z,10.68
2019-05-21T10:19:22.189Z,11.33
2019-05-21T10:21:52.514Z,11.50
2019-05-21T10:24:22.864Z,11.63
2019-05-21T10:26:53.163Z,11.70
2019-05-21T10:29:23.624Z,13.15
2019-05-21T10:31:53.886Z,11.57
2019-05-21T10:34:24.109Z,11.38
2019-05-21T10:36:54.312Z,13.20
2019-05-21T10:39:24.653Z,13.45
2019-05-21T10:41:55.087Z,14.30
2019-05-21T10:44:25.329Z,14.13
2019-05-21T10:46:55.624Z,14.18
2019-05-21T10:49:26.849Z,14.00
2019-05-21T10:51:57.074Z,13.48
2019-05-21T10:54:27.326Z,13.72
2019-05-21T10:56:57.645Z,14.75
2019-05-21T10:59:27.957Z,14.18
2019-05-21T11:02:02.616Z,14.00
2019-05-21T11:04:34.516Z,12.78
2019-05-21T11:07:04.937Z,13.00
2019-05-21T11:09:35.207Z,12.37
2019-05-21T11:12:07.119Z,12.10
2019-05-21T11:14:37.476Z,12.07
2019-05-21T11:17:12.138Z,11.95
2019-05-21T11:19:42.548Z,11.20
2019-05-21T11:22:13.755Z,11.45
2019-05-21T11:24:47.388Z,10.68
2019-05-21T11:27:20.610Z,10.70
2019-05-21T11:29:54.537Z,11.15
2019-05-21T11:32:25.434Z,11.88
2019-05-21T11:35:03.975Z,10.80
2019-05-21T11:37:41.069Z,10.20
2019-05-21T11:40:14.698Z,9.73
2019-05-21T11:42:47.371Z,10.90
2019-05-21T11:45:31.728Z,10.98
2019-05-21T11:47:50.167Z,10.03
2019-05-21T11:50:25.562Z,9.20
2019-05-21T11:52:56.816Z,10.35
2019-05-21T11:55:27.036Z,10.60
2019-05-21T11:57:57.204Z,10.95
2019-05-21T12:00:29.029Z,10.55
2019-05-21T12:02:59.365Z,10.45
2019-05-21T12:05:29.592Z,10.05
2019-05-21T12:07:59.944Z,11.60
2019-05-21T12:10:30.179Z,10.68
2019-05-21T12:13:00.410Z,11.08
2019-05-21T12:15:30.644Z,10.75
2019-05-21T12:18:00.917Z,11.48
2019-05-21T12:20:36.857Z,11.38
2019-05-21T12:23:04.227Z,12.15
2019-05-21T12:25:34.547Z,11.45
2019-05-21T12:28:04.906Z,10.95
2019-05-21T12:30:35.085Z,11.75
2019-05-21T12:33:05.538Z,11.68
2019-05-21T12:35:35.725Z,11.50
2019-05-21T12:38:05.871Z,13.32
2019-05-21T12:40:38.424Z,12.03
2019-05-21T12:43:08.654Z,13.60
2019-05-21T12:45:38.872Z,12.15
2019-05-21T12:48:10.026Z,11.53
2019-05-21T12:50:40.563Z,12.55
2019-05-21T12:53:10.940Z,11.53
2019-05-21T12:55:41.530Z,12.65
2019-05-21T12:58:12.171Z,12.47
2019-05-21T13:00:43.234Z,11.88
2019-05-21T13:03:13.671Z,12.30
2019-05-21T13:05:43.768Z,13.45
2019-05-21T13:08:13.923Z,12.95
2019-05-21T13:10:45.027Z,12.80
2019-05-21T13:13:15.245Z,12.37
2019-05-21T13:15:45.401Z,12.05
2019-05-21T13:18:15.620Z,13.60
2019-05-21T13:20:45.794Z,13.55
2019-05-21T13:23:15.943Z,12.43
2019-05-21T13:25:46.199Z,13.30
2019-05-21T13:28:16.312Z,13.18
2019-05-21T13:30:46.611Z,13.55
2019-05-21T13:33:19.379Z,13.13
2019-05-21T13:35:48.718Z,13.25
2019-05-21T13:38:18.967Z,13.18
2019-05-21T13:40:49.789Z,12.90
2019-05-21T13:43:21.435Z,12.20
2019-05-21T13:45:52.002Z,13.08
2019-05-21T13:48:22.064Z,11.28
2019-05-21T13:50:52.372Z,13.35
2019-05-21T13:53:22.531Z,12.40
2019-05-21T13:55:52.764Z,10.93
2019-05-21T13:58:22.867Z,12.45
2019-05-21T14:00:56.080Z,12.28
2019-05-21T14:03:26.165Z,13.90
2019-05-21T14:05:57.403Z,12.33
2019-05-21T14:08:27.715Z,12.45
2019-05-21T14:10:57.791Z,12.53
2019-05-21T14:13:28.257Z,12.75
2019-05-21T14:15:58.654Z,10.85
2019-05-21T14:18:28.899Z,11.03
2019-05-21T14:20:59.067Z,11.40
2019-05-21T14:23:29.226Z,12.68
2019-05-21T14:25:59.495Z,11.40
2019-05-21T14:28:34.294Z,12.23
2019-05-21T14:31:02.626Z,10.65
2019-05-21T14:33:32.880Z,17.15
2019-05-21T14:36:04.256Z,19.05
2019-05-21T14:38:34.507Z,20.68
2019-05-21T14:41:04.763Z,21.48
2019-05-21T14:43:34.987Z,22.40
2019-05-21T14:46:06.545Z,20.25
2019-05-21T14:48:36.729Z,21.27
2019-05-21T14:51:06.737Z,21.68
2019-05-21T14:53:36.829Z,20.45
2019-05-21T14:56:06.995Z,22.10
2019-05-21T14:58:37.065Z,21.85
2019-05-21T15:01:07.506Z,22.27
2019-05-21T15:03:37.732Z,22.58
2019-05-21T15:06:07.833Z,22.07
2019-05-21T15:08:38.007Z,21.57
2019-05-21T15:11:08.087Z,21.52
2019-05-21T15:13:38.254Z,21.97
2019-05-21T15:16:08.416Z,21.00
2019-05-21T15:18:38.588Z,21.75
2019-05-21T15:21:13.369Z,21.62
2019-05-21T15:23:44.079Z,21.30
2019-05-21T15:26:14.771Z,21.23
2019-05-21T15:28:44.918Z,20.88
2019-05-21T15:31:15.263Z,22.00
2019-05-21T15:33:45.460Z,21.30
2019-05-21T15:36:15.620Z,20.20
2019-05-21T15:38:50.519Z,21.20
2019-05-21T15:41:17.876Z,22.48
2019-05-21T15:43:48.020Z,21.40
2019-05-21T15:46:18.229Z,21.42
2019-05-21T15:48:48.303Z,20.95
2019-05-21T15:51:18.652Z,20.48
2019-05-21T15:53:48.797Z,21.60
2019-05-21T15:56:19.023Z,21.07
2019-05-21T15:58:49.256Z,20.45
2019-05-21T16:01:19.403Z,19.27
2019-05-21T16:03:49.520Z,20.40
2019-05-21T16:06:19.804Z,21.95
2019-05-21T16:08:50.038Z,21.80
2019-05-21T16:11:28.451Z,21.90
2019-05-21T16:13:53.078Z,20.37
2019-05-21T16:16:23.289Z,19.48
2019-05-21T16:18:53.403Z,18.17
2019-05-21T16:21:23.651Z,18.48
2019-05-21T16:23:53.891Z,17.57
2019-05-21T16:26:24.391Z,17.57
2019-05-21T16:28:54.709Z,18.40
2019-05-21T16:31:24.924Z,17.82
2019-05-21T16:33:55.175Z,19.80
2019-05-21T16:36:25.384Z,18.95
2019-05-21T16:38:55.792Z,21.17
2019-05-21T16:41:26.381Z,19.75
2019-05-21T16:43:56.606Z,18.20
2019-05-21T16:46:26.868Z,19.45
2019-05-21T16:48:59.186Z,18.60
2019-05-21T16:51:29.396Z,18.07
2019-05-21T16:53:59.447Z,17.50
2019-05-21T16:56:29.612Z,18.12
2019-05-21T16:58:59.775Z,19.50
2019-05-21T17:01:29.897Z,18.73
2019-05-21T17:04:00.440Z,18.90
2019-05-21T17:06:30.726Z,19.12
2019-05-21T17:09:00.945Z,19.00
2019-05-21T17:11:32.540Z,18.62
2019-05-21T17:14:04.075Z,19.60
2019-05-21T17:16:34.323Z,18.40
2019-05-21T17:19:04.587Z,19.80
2019-05-21T17:21:34.956Z,19.27
2019-05-21T17:24:05.273Z,18.50
2019-05-21T17:26:35.467Z,19.65
2019-05-21T17:29:05.697Z,20.10
2019-05-21T17:31:35.924Z,20.48
2019-05-21T17:34:06.225Z,20.25
2019-05-21T17:36:36.395Z,20.20
2019-05-21T17:39:07.220Z,19.52
2019-05-21T17:41:37.469Z,20.35
2019-05-21T17:44:08.653Z,20.68
2019-05-21T17:46:38.983Z,20.20
2019-05-21T17:49:09.188Z,19.98
2019-05-21T17:51:39.411Z,20.25
2019-05-21T17:54:13.623Z,21.00
2019-05-21T17:56:43.813Z,21.23
2019-05-21T17:59:14.154Z,21.02
2019-05-21T18:01:44.424Z,22.02
2019-05-21T18:04:16.230Z,21.25
2019-05-21T18:06:47.137Z,22.10
2019-05-21T18:09:19.345Z,22.75
2019-05-21T18:11:50.197Z,21.57
2019-05-21T18:14:20.443Z,21.90
2019-05-21T18:16:50.654Z,21.02
2019-05-21T18:19:21.374Z,22.95
2019-05-21T18:21:51.611Z,21.80
2019-05-21T18:24:22.201Z,22.80
2019-05-21T18:26:52.434Z,22.17
2019-05-21T18:29:23.674Z,21.87
2019-05-21T18:31:53.841Z,21.85
2019-05-21T18:34:24.095Z,22.67
2019-05-21T18:36:54.351Z,22.65
2019-05-21T18:39:25.420Z,22.60
2019-05-21T18:41:55.584Z,23.47
2019-05-21T18:44:25.742Z,23.05
2019-05-21T18:46:56.029Z,22.17
2019-05-21T18:49:27.772Z,22.07
2019-05-21T18:51:59.499Z,22.67
2019-05-21T18:54:29.691Z,22.02
2019-05-21T18:56:59.969Z,22.62
2019-05-21T18:59:30.276Z,22.93
2019-05-21T19:02:00.720Z,22.55
2019-05-21T19:04:31.039Z,22.58
2019-05-21T19:07:01.481Z,23.50
2019-05-21T19:09:31.637Z,25.12
2019-05-21T19:12:01.983Z,25.20
2019-05-21T19:14:32.210Z,24.05
2019-05-21T19:17:02.285Z,23.40
2019-05-21T19:19:32.529Z,23.60
2019-05-21T19:22:02.773Z,24.92
2019-05-21T19:24:33.009Z,24.52
2019-05-21T19:27:03.164Z,24.32
2019-05-21T19:29:33.326Z,25.37
2019-05-21T19:32:04.921Z,24.75
2019-05-21T19:34:35.190Z,27.37
2019-05-21T19:37:05.525Z,29.27
2019-05-21T19:39:36.252Z,29.70
2019-05-21T19:42:06.487Z,32.28
2019-05-21T19:44:36.720Z,28.75
2019-05-21T19:47:06.944Z,27.77
2019-05-21T19:49:38.116Z,27.30
2019-05-21T19:52:08.336Z,28.55
2019-05-21T19:54:38.612Z,28.62
2019-05-21T19:57:08.765Z,29.98
2019-05-21T19:59:39.066Z,30.55
2019-05-21T20:02:10.953Z,31.10
2019-05-21T20:04:42.587Z,30.02
2019-05-21T20:07:14.488Z,29.80
2019-05-21T20:09:45.630Z,29.77
2019-05-21T20:12:17.359Z,29.30
2019-05-21T20:14:47.658Z,30.15
2019-05-21T20:17:18.226Z,28.77
2019-05-21T20:19:50.105Z,30.48
2019-05-21T20:22:20.347Z,30.85
2019-05-21T20:24:50.882Z,29.98
2019-05-21T20:27:20.965Z,30.80
2019-05-21T20:29:51.191Z,31.68
2019-05-21T20:32:22.216Z,31.30
2019-05-21T20:34:52.534Z,30.77
2019-05-21T20:37:24.198Z,32.30
2019-05-21T20:39:55.191Z,32.05
2019-05-21T20:42:27.007Z,30.68
2019-05-21T20:44:57.337Z,32.33
2019-05-21T20:47:28.948Z,32.63
2019-05-21T20:50:00.078Z,32.28
2019-05-21T20:52:30.419Z,31.60
2019-05-21T20:55:00.807Z,32.93
2019-05-21T20:57:37.767Z,31.52
2019-05-21T21:00:09.003Z,32.03
2019-05-21T21:02:41.851Z,32.75
2019-05-21T21:05:13.145Z,35.48
2019-05-21T21:07:43.457Z,33.15
2019-05-21T21:10:14.375Z,33.63
2019-05-21T21:12:44.767Z,34.60
2019-05-21T21:15:15.214Z,33.70
2019-05-21T21:17:45.341Z,33.92
2019-05-21T21:20:15.754Z,32.88
2019-05-21T21:22:46.063Z,32.65
2019-05-21T21:25:22.847Z,32.90
2019-05-21T21:27:53.519Z,33.92
2019-05-21T21:30:26.571Z,33.20
2019-05-21T21:32:56.968Z,34.63
2019-05-21T21:35:27.293Z,33.45
2019-05-21T21:37:58.335Z,33.63
2019-05-21T21:40:28.580Z,33.78
2019-05-21T21:42:58.920Z,34.05
2019-05-21T21:45:29.185Z,32.45
2019-05-21T21:47:59.284Z,35.15
2019-05-21T21:50:29.909Z,31.60
2019-05-21T21:53:00.150Z,34.43
2019-05-21T21:55:32.044Z,35.30
2019-05-21T21:58:02.702Z,36.33
2019-05-21T22:00:55.380Z,35.83
2019-05-21T22:03:32.532Z,35.92
2019-05-21T22:06:04.714Z,37.08
2019-05-21T22:08:36.052Z,35.58
2019-05-21T22:11:06.813Z,35.25
2019-05-21T22:13:37.426Z,37.05
2019-05-21T22:16:07.845Z,37.67
2019-05-21T22:18:38.372Z,39.40
2019-05-21T22:21:08.960Z,37.50
2019-05-21T22:23:39.584Z,37.03
2019-05-21T22:26:09.768Z,37.42
2019-05-21T22:28:40.016Z,39.20
2019-05-21T22:31:10.306Z,38.10
2019-05-21T22:33:41.739Z,38.73
2019-05-21T22:36:12.045Z,37.42
2019-05-21T22:38:42.367Z,37.55
2019-05-21T22:41:12.497Z,37.55
2019-05-21T22:43:44.246Z,38.02
2019-05-21T22:46:14.686Z,38.83
2019-05-21T22:48:45.537Z,35.28
2019-05-21T22:51:15.779Z,38.65
2019-05-21T22:53:46.164Z,38.28
2019-05-21T22:56:16.380Z,37.95
2019-05-21T22:58:46.690Z,40.67
2019-05-21T23:01:17.432Z,39.42
2019-05-21T23:03:47.767Z,39.08
2019-05-21T23:06:18.734Z,36.88
2019-05-21T23:08:49.223Z,37.05
2019-05-21T23:11:22.853Z,36.50
2019-05-21T23:13:51.144Z,38.00
2019-05-21T23:16:21.405Z,35.85
2019-05-21T23:19:10.914Z,36.88
2019-05-21T23:21:51.994Z,33.60
2019-05-21T23:24:23.769Z,34.98
2019-05-21T23:26:54.494Z,36.63
2019-05-21T23:29:25.914Z,33.33
2019-05-21T23:31:56.207Z,34.63
2019-05-21T23:34:26.782Z,34.20
2019-05-21T23:36:58.378Z,35.58
2019-05-21T23:39:28.741Z,36.38
2019-05-21T23:41:59.265Z,34.63
2019-05-21T23:44:29.898Z,37.05
2019-05-21T23:47:00.062Z,37.73
2019-05-21T23:49:30.318Z,39.20
2019-05-21T23:52:00.423Z,35.55
2019-05-21T23:54:30.603Z,30.60
2019-05-21T23:57:01.682Z,29.65
2019-05-21T23:59:31.707Z,32.35
